Time;durP1;ratioP1;P1;durP2;ratioP2;P2;SDS_P1;SDS_P2;PMS_P1;PMS_P2;Temp;Humidity;BMP_temperature;BMP_pressure;BME280_temperature;BME280_humidity;BME280_pressure;Samples;Min_cycle;Max_cycle;Signal;HPM_P1;HPM_P2
2021/01/21 00:01:55;;;;;;;43.42;19.95;;;;;;;1.15;60.18;94525.66;5130136;27;20030;-75
2021/01/21 00:04:21;;;;;;;54.92;19.92;;;;;;;1.08;60.11;94527.63;5096504;28;20066;-76
2021/01/21 00:06:46;;;;;;;48.33;20.25;;;;;;;1.05;60.04;94522.88;5119393;27;20023;-76
2021/01/21 00:09:13;;;;;;;35.45;16.60;;;;;;;1.04;60.22;94531.78;5100538;28;20032;-76
2021/01/21 00:11:39;;;;;;;40.42;16.55;;;;;;;0.94;60.73;94521.91;5094300;28;20088;-76
2021/01/21 00:14:04;;;;;;;34.03;14.63;;;;;;;0.95;60.62;94528.75;5091266;28;20131;-76
2021/01/21 00:16:30;;;;;;;36.85;14.30;;;;;;;0.96;60.66;94523.25;5109506;28;20036;-76
2021/01/21 00:18:55;;;;;;;34.00;13.55;;;;;;;1.02;60.39;94539.09;5105344;28;20647;-76
2021/01/21 00:21:21;;;;;;;47.75;14.52;;;;;;;0.99;60.28;94529.84;5091176;28;20028;-76
2021/01/21 00:23:46;;;;;;;34.83;14.13;;;;;;;0.99;60.47;94541.16;5109225;28;20092;-76
2021/01/21 00:26:11;;;;;;;34.33;12.60;;;;;;;0.90;60.86;94534.69;5109515;28;20049;-76
2021/01/21 00:28:37;;;;;;;42.58;16.75;;;;;;;0.93;60.94;94533.44;5099614;28;20027;-76
2021/01/21 00:31:02;;;;;;;48.35;18.95;;;;;;;0.95;61.03;94534.78;5127367;27;20034;-76
2021/01/21 00:33:28;;;;;;;45.08;19.15;;;;;;;0.89;60.80;94522.59;5111771;28;20027;-76
2021/01/21 00:35:53;;;;;;;49.80;18.85;;;;;;;0.88;60.96;94523.66;5113513;28;20609;-76
2021/01/21 00:38:18;;;;;;;34.30;14.75;;;;;;;0.81;60.71;94517.72;5111990;28;20160;-76
2021/01/21 00:40:44;;;;;;;38.42;16.05;;;;;;;0.79;61.23;94517.16;5094867;28;20031;-76
2021/01/21 00:43:09;;;;;;;52.42;20.17;;;;;;;0.81;61.36;94533.47;5112971;28;20061;-76
2021/01/21 00:45:35;;;;;;;33.72;15.07;;;;;;;0.74;61.42;94517.09;5113239;28;20088;-76
2021/01/21 00:48:00;;;;;;;39.35;17.60;;;;;;;0.75;61.31;94523.91;5095468;27;20031;-76
2021/01/21 00:50:25;;;;;;;52.60;22.98;;;;;;;0.80;61.33;94516.94;5110660;28;20403;-76
2021/01/21 00:52:51;;;;;;;53.92;20.50;;;;;;;0.77;61.14;94512.19;5113075;28;20054;-76
2021/01/21 00:55:16;;;;;;;56.97;24.17;;;;;;;0.82;61.04;94519.34;5110231;27;20545;-76
2021/01/21 00:57:42;;;;;;;43.97;18.88;;;;;;;0.78;60.82;94510.34;5132163;27;20488;-76
2021/01/21 01:00:10;;;;;;;27.95;11.68;;;;;;;0.72;61.48;94519.16;5113561;27;20088;-76
2021/01/21 01:02:35;;;;;;;27.25;12.10;;;;;;;0.60;61.74;94496.38;5113376;28;20068;-76
2021/01/21 01:05:01;;;;;;;35.25;10.77;;;;;;;0.63;61.54;94508.22;5112597;28;20118;-77
2021/01/21 01:07:27;;;;;;;21.25;10.82;;;;;;;0.63;61.59;94500.34;5111420;28;20053;-76
2021/01/21 01:09:52;;;;;;;43.10;16.10;;;;;;;0.68;61.40;94486.56;5115764;27;20538;-76
2021/01/21 01:12:18;;;;;;;43.00;17.45;;;;;;;0.67;61.40;94496.25;5101161;28;20044;-77
2021/01/21 01:14:44;;;;;;;36.92;14.32;;;;;;;0.64;61.56;94493.31;5101505;27;20031;-76
2021/01/21 01:17:10;;;;;;;41.22;16.77;;;;;;;0.68;61.62;94497.03;5115350;27;20027;-77
2021/01/21 01:19:35;;;;;;;45.58;16.05;;;;;;;0.58;61.71;94481.91;5111059;27;20041;-77
2021/01/21 01:22:00;;;;;;;51.80;18.05;;;;;;;0.64;61.44;94486.22;5133103;27;20401;-77
2021/01/21 01:24:26;;;;;;;42.92;16.23;;;;;;;0.56;62.02;94481.34;5126123;27;20049;-77
2021/01/21 01:26:51;;;;;;;38.13;13.57;;;;;;;0.59;61.66;94483.50;5102576;28;20028;-77
2021/01/21 01:29:19;;;;;;;55.20;16.23;;;;;;;0.63;61.64;94484.59;5131741;27;20566;-77
2021/01/21 01:31:44;;;;;;;37.63;11.55;;;;;;;0.62;61.58;94474.38;5132364;27;20035;-77
2021/01/21 01:34:09;;;;;;;47.28;15.80;;;;;;;0.64;61.34;94480.19;5112277;28;20479;-78
2021/01/21 01:36:35;;;;;;;29.58;10.35;;;;;;;0.55;61.78;94467.44;5123805;27;20492;-78
2021/01/21 01:39:00;;;;;;;31.25;12.63;;;;;;;0.59;61.76;94478.25;5117955;27;20118;-78
2021/01/21 01:41:28;;;;;;;51.85;14.55;;;;;;;0.61;61.84;94484.06;5103549;27;20031;-78
2021/01/21 01:43:53;;;;;;;53.78;15.00;;;;;;;0.62;61.73;94484.88;5132597;27;20027;-78
2021/01/21 01:46:19;;;;;;;42.58;15.27;;;;;;;0.63;61.70;94470.69;5098215;28;20023;-78
2021/01/21 01:48:44;;;;;;;42.17;15.20;;;;;;;0.55;61.89;94483.19;5092776;28;20110;-78
2021/01/21 01:51:10;;;;;;;37.35;13.35;;;;;;;0.61;61.57;94486.69;5109285;27;20039;-77
2021/01/21 01:53:35;;;;;;;31.20;12.90;;;;;;;0.61;61.37;94478.81;5104595;28;20060;-76
2021/01/21 01:56:01;;;;;;;37.13;11.82;;;;;;;0.54;61.78;94478.94;5103306;27;20038;-76
2021/01/21 01:58:27;;;;;;;41.65;14.25;;;;;;;0.57;61.84;94475.88;5109004;28;20539;-77
2021/01/21 02:00:54;;;;;;;36.65;12.68;;;;;;;0.55;61.76;94482.38;5093419;28;20027;-77
2021/01/21 02:03:21;;;;;;;35.35;13.73;;;;;;;0.55;61.80;94477.94;5111548;28;20030;-77
2021/01/21 02:05:46;;;;;;;32.25;12.85;;;;;;;0.56;61.90;94469.03;5116009;27;20038;-77
2021/01/21 02:08:12;;;;;;;29.40;11.95;;;;;;;0.57;61.87;94470.63;5117876;27;20079;-77
2021/01/21 02:10:39;;;;;;;33.53;14.52;;;;;;;0.52;62.19;94457.41;5104957;27;20039;-77
2021/01/21 02:13:30;;;;;;;46.08;17.85;;;;;;;0.56;61.82;94471.66;5132177;27;20470;-77
2021/01/21 02:15:58;;;;;;;57.63;19.40;;;;;;;0.54;62.06;94455.34;5123947;27;20035;-74
2021/01/21 02:18:48;;;;;;;64.15;21.65;;;;;;;0.57;61.72;94454.88;5093414;27;20024;-74
2021/01/21 02:21:31;;;;;;;54.03;20.45;;;;;;;0.51;61.90;94461.06;5113394;27;20059;-74
2021/01/21 02:24:34;;;;;;;44.65;17.95;;;;;;;0.52;62.01;94454.78;5120244;27;20038;-75
2021/01/21 02:27:05;;;;;;;55.17;17.90;;;;;;;0.48;62.09;94456.28;5128808;27;20027;-75
2021/01/21 02:29:36;;;;;;;52.47;17.83;;;;;;;0.45;62.05;94451.53;5131731;27;20015;-75
2021/01/21 02:32:13;;;;;;;43.25;16.67;;;;;;;0.48;61.95;94456.28;5131726;27;20321;-75
2021/01/21 02:34:44;;;;;;;40.30;14.93;;;;;;;0.48;62.30;94458.13;5131407;27;20034;-76
2021/01/21 02:37:18;;;;;;;35.33;13.57;;;;;;;0.45;63.06;94464.63;5117251;27;20027;-76
2021/01/21 02:39:48;;;;;;;43.97;14.95;;;;;;;0.46;62.67;94462.81;5126527;27;20070;-77
2021/01/21 02:42:14;;;;;;;58.60;19.02;;;;;;;0.44;62.26;94470.13;5114159;27;20383;-77
2021/01/21 02:44:40;;;;;;;64.22;20.52;;;;;;;0.43;62.37;94469.31;5113090;27;20019;-76
2021/01/21 02:47:05;;;;;;;52.58;20.35;;;;;;;0.48;62.30;94468.63;5110816;27;20025;-76
2021/01/21 02:49:32;;;;;;;49.30;19.40;;;;;;;0.49;61.88;94460.50;5119069;27;20102;-76
2021/01/21 02:52:07;;;;;;;44.25;19.25;;;;;;;0.45;62.16;94464.63;5098134;27;20022;-76
2021/01/21 02:54:52;;;;;;;43.70;17.15;;;;;;;0.45;61.91;94464.63;5092467;28;20031;-76
2021/01/21 02:57:27;;;;;;;47.40;17.50;;;;;;;0.42;62.38;94465.09;5092250;28;20127;-76
2021/01/21 02:59:59;;;;;;;48.90;16.77;;;;;;;0.41;62.53;94463.50;5118032;27;20426;-76
2021/01/21 03:02:27;;;;;;;35.55;13.95;;;;;;;0.47;61.97;94443.41;5130528;27;20034;-75
2021/01/21 03:04:54;;;;;;;26.10;11.20;;;;;;;0.47;61.98;94449.47;5131245;27;20110;-75
2021/01/21 03:07:22;;;;;;;19.92;9.00;;;;;;;0.47;62.02;94452.09;5095646;28;20031;-75
2021/01/21 03:09:48;;;;;;;23.60;8.70;;;;;;;0.50;61.93;94459.47;5120700;27;20028;-75
2021/01/21 03:12:20;;;;;;;24.83;9.70;;;;;;;0.53;61.55;94455.56;5093448;27;20085;-75
2021/01/21 03:14:47;;;;;;;30.90;11.48;;;;;;;0.47;61.74;94453.88;5130862;27;20509;-75
2021/01/21 03:17:12;;;;;;;24.52;10.93;;;;;;;0.48;62.06;94455.50;5112304;27;20103;-75
2021/01/21 03:19:38;;;;;;;29.30;11.45;;;;;;;0.48;61.44;94458.91;5110858;28;20546;-75
2021/01/21 03:22:04;;;;;;;23.88;10.32;;;;;;;0.45;61.89;94462.00;5110460;28;20031;-75
2021/01/21 03:24:29;;;;;;;28.83;10.52;;;;;;;0.47;61.54;94453.88;5103015;27;20027;-75
2021/01/21 03:26:55;;;;;;;27.05;11.82;;;;;;;0.45;61.91;94462.00;5110121;28;20027;-75
2021/01/21 03:29:20;;;;;;;30.35;10.63;;;;;;;0.47;61.74;94462.59;5111652;28;20024;-75
2021/01/21 03:31:46;;;;;;;22.73;9.77;;;;;;;0.50;61.30;94472.59;5117300;27;20122;-75
2021/01/21 03:34:14;;;;;;;19.90;9.77;;;;;;;0.43;61.98;94479.81;5122030;27;20054;-75
2021/01/21 03:36:40;;;;;;;24.73;9.20;;;;;;;0.38;62.03;94480.50;5111742;28;20015;-75
2021/01/21 03:39:05;;;;;;;25.95;10.88;;;;;;;0.40;62.27;94472.41;5094914;28;20035;-75
2021/01/21 03:41:30;;;;;;;26.20;10.52;;;;;;;0.35;62.37;94477.56;5093837;28;20028;-75
2021/01/21 03:43:56;;;;;;;35.90;12.27;;;;;;;0.27;63.01;94475.31;5112177;28;20042;-75
2021/01/21 03:46:21;;;;;;;20.73;10.30;;;;;;;0.31;62.92;94471.19;5107191;28;20019;-74
2021/01/21 03:48:47;;;;;;;32.60;12.65;;;;;;;0.29;62.80;94473.25;5109882;28;20019;-75
2021/01/21 03:51:12;;;;;;;25.50;11.77;;;;;;;0.32;62.48;94481.44;5091595;28;20031;-74
2021/01/21 03:53:38;;;;;;;26.52;12.10;;;;;;;0.32;62.17;94473.56;5094080;28;20071;-74
2021/01/21 03:56:04;;;;;;;28.27;12.70;;;;;;;0.33;62.71;94464.69;5121958;28;20023;-75
2021/01/21 03:58:29;;;;;;;28.48;10.50;;;;;;;0.31;62.17;94455.47;5130222;27;20030;-75
2021/01/21 04:00:54;;;;;;;28.13;12.38;;;;;;;0.27;62.38;94463.00;5099047;28;20027;-75
2021/01/21 04:03:20;;;;;;;25.92;12.73;;;;;;;0.12;63.02;94465.31;5110202;28;20028;-75
2021/01/21 04:05:45;;;;;;;34.58;14.80;;;;;;;0.16;63.06;94464.63;5105604;28;20412;-74
2021/01/21 04:08:11;;;;;;;37.80;13.38;;;;;;;0.18;62.85;94472.25;5109892;28;20028;-76
2021/01/21 04:10:36;;;;;;;27.38;13.23;;;;;;;0.21;63.08;94471.00;5118304;28;20111;-75
2021/01/21 04:13:01;;;;;;;29.17;13.45;;;;;;;0.19;62.42;94469.41;5120006;27;20415;-75
2021/01/21 04:15:27;;;;;;;32.20;13.80;;;;;;;0.18;62.88;94475.69;5126316;27;20029;-75
2021/01/21 04:17:52;;;;;;;31.88;13.90;;;;;;;0.22;62.21;94480.44;5095191;28;20020;-75
2021/01/21 04:20:18;;;;;;;35.63;14.48;;;;;;;0.21;62.24;94481.50;5112492;28;20019;-75
2021/01/21 04:22:43;;;;;;;34.63;14.60;;;;;;;0.16;62.48;94475.13;5098121;28;20028;-75
2021/01/21 04:25:10;;;;;;;39.28;15.90;;;;;;;0.19;62.26;94482.50;5113687;28;20055;-75
2021/01/21 04:27:35;;;;;;;44.55;15.82;;;;;;;0.12;62.39;94484.47;5095075;28;20031;-75
2021/01/21 04:30:01;;;;;;;48.25;16.63;;;;;;;0.10;62.66;94470.81;5116685;27;20515;-75
2021/01/21 04:32:26;;;;;;;42.17;16.10;;;;;;;0.13;62.19;94472.94;5113791;28;20065;-75
2021/01/21 04:34:51;;;;;;;36.88;16.25;;;;;;;0.07;62.29;94480.94;5114152;27;20030;-75
2021/01/21 04:37:17;;;;;;;36.45;16.00;;;;;;;-0.05;63.12;94483.59;5133995;27;20413;-75
2021/01/21 04:39:42;;;;;;;34.05;15.02;;;;;;;-0.08;63.13;94487.47;5116100;27;20035;-75
2021/01/21 04:42:08;;;;;;;29.65;13.52;;;;;;;-0.24;64.35;94488.97;5103664;28;20031;-75
2021/01/21 04:44:33;;;;;;;31.90;13.50;;;;;;;-0.39;64.93;94483.41;5096798;27;20042;-75
2021/01/21 04:46:59;;;;;;;36.03;13.25;;;;;;;-0.42;64.93;94494.34;5131550;27;20086;-75
2021/01/21 04:49:28;;;;;;;24.73;11.13;;;;;;;-0.38;64.78;94490.25;5126682;27;20056;-75
2021/01/21 04:51:57;;;;;;;26.10;11.00;;;;;;;-0.32;64.50;94496.41;5115126;27;20035;-74
2021/01/21 04:54:36;;;;;;;28.63;11.45;;;;;;;-0.37;64.79;94494.44;5115623;27;20541;-74
2021/01/21 04:57:04;;;;;;;29.25;13.07;;;;;;;-0.34;64.53;94508.94;5133671;27;20054;-74
2021/01/21 04:59:36;;;;;;;39.58;15.25;;;;;;;-0.34;64.49;94496.63;5133581;27;20040;-74
2021/01/21 05:02:03;;;;;;;33.40;15.13;;;;;;;-0.33;65.04;94497.41;5115154;27;20076;-74
2021/01/21 05:04:29;;;;;;;33.65;15.57;;;;;;;-0.28;64.66;94500.94;5114830;27;20399;-75
2021/01/21 05:06:55;;;;;;;31.55;14.23;;;;;;;-0.22;64.73;94484.31;5114912;27;20031;-75
2021/01/21 05:09:21;;;;;;;45.72;15.95;;;;;;;-0.21;64.18;94488.50;5133547;27;20412;-75
2021/01/21 05:11:48;;;;;;;43.83;17.48;;;;;;;-0.18;64.03;94478.59;5115036;27;20095;-75
2021/01/21 05:14:13;;;;;;;42.00;14.30;;;;;;;-0.12;63.99;94482.91;5118841;27;20019;-77
2021/01/21 05:16:41;;;;;;;38.17;15.75;;;;;;;-0.12;63.60;94475.88;5122119;27;20406;-76
2021/01/21 05:19:08;;;;;;;45.17;17.33;;;;;;;-0.09;64.35;94482.47;5114874;27;20425;-76
2021/01/21 05:21:39;;;;;;;51.00;19.88;;;;;;;-0.10;63.86;94486.09;5094899;28;20471;-76
2021/01/21 05:24:05;;;;;;;46.92;18.80;;;;;;;-0.05;63.89;94478.34;5111416;27;20087;-76
2021/01/21 05:26:31;;;;;;;49.28;18.38;;;;;;;0.00;63.51;94483.72;5093952;28;20026;-75
2021/01/21 05:28:56;;;;;;;43.70;16.88;;;;;;;0.01;63.68;94474.81;5093911;28;20027;-75
2021/01/21 05:31:22;;;;;;;36.10;15.05;;;;;;;0.06;63.41;94463.63;5112156;28;20039;-76
2021/01/21 05:33:50;;;;;;;35.67;15.63;;;;;;;0.08;63.54;94485.97;5097883;27;20209;-75
2021/01/21 05:36:15;;;;;;;40.00;17.38;;;;;;;0.11;63.08;94469.75;5114472;27;20072;-76
2021/01/21 05:38:56;;;;;;;49.17;17.15;;;;;;;0.17;63.22;94481.94;5114098;27;20027;-76
2021/01/21 05:41:25;;;;;;;41.65;16.27;;;;;;;0.16;63.24;94477.75;5114533;27;20046;-76
2021/01/21 05:43:52;;;;;;;42.63;17.67;;;;;;;0.18;63.37;94482.72;5113849;27;20087;-76
2021/01/21 05:46:19;;;;;;;47.53;18.58;;;;;;;0.23;62.73;94480.22;5114305;27;20034;-76
2021/01/21 05:48:44;;;;;;;46.67;18.17;;;;;;;0.23;63.17;94485.47;5114291;27;20024;-75
2021/01/21 05:51:11;;;;;;;52.40;20.27;;;;;;;0.30;63.03;94478.25;5111878;28;20413;-74
2021/01/21 05:53:38;;;;;;;46.95;19.38;;;;;;;0.35;62.84;94477.56;5110599;28;20032;-74
2021/01/21 05:56:08;;;;;;;47.75;19.55;;;;;;;0.37;62.41;94471.06;5113625;27;20023;-74
2021/01/21 05:58:34;;;;;;;45.15;18.58;;;;;;;0.39;62.45;94478.69;5113837;27;20421;-74
2021/01/21 06:01:00;;;;;;;45.22;19.20;;;;;;;0.36;62.44;94479.94;5095636;28;20068;-74
2021/01/21 06:03:26;;;;;;;50.05;19.20;;;;;;;0.40;62.44;94477.66;5117484;27;20032;-74
2021/01/21 06:05:52;;;;;;;41.33;17.40;;;;;;;0.41;62.74;94484.50;5103319;28;20027;-74
2021/01/21 06:08:21;;;;;;;48.53;18.65;;;;;;;0.45;62.85;94485.63;5103552;27;20034;-74
2021/01/21 06:10:47;;;;;;;49.45;18.63;;;;;;;0.46;62.78;94483.78;5101040;28;20028;-74
2021/01/21 06:13:15;;;;;;;46.97;20.73;;;;;;;0.39;62.91;94474.22;5092654;28;20031;-75
2021/01/21 06:15:41;;;;;;;61.47;24.90;;;;;;;0.43;62.93;94473.75;5107595;27;20023;-74
2021/01/21 06:18:07;;;;;;;59.88;26.15;;;;;;;0.42;62.83;94482.66;5130684;27;20026;-74
2021/01/21 06:20:33;;;;;;;63.75;25.23;;;;;;;0.42;62.94;94488.69;5113163;27;20027;-74
2021/01/21 06:23:05;;;;;;;56.38;22.40;;;;;;;0.46;63.14;94489.81;5130604;27;20041;-74
2021/01/21 06:25:32;;;;;;;61.55;22.92;;;;;;;0.53;62.94;94490.50;5095600;28;20119;-74
2021/01/21 06:27:59;;;;;;;63.50;24.92;;;;;;;0.63;62.87;94500.34;5120625;27;20145;-75
2021/01/21 06:30:26;;;;;;;57.20;24.33;;;;;;;0.56;62.49;94490.00;5094194;28;20042;-74
2021/01/21 06:33:04;;;;;;;58.80;23.10;;;;;;;0.58;62.81;94498.44;5109307;28;20068;-74
2021/01/21 06:35:32;;;;;;;57.00;23.75;;;;;;;0.66;62.55;94496.47;5110117;28;20402;-74
2021/01/21 06:38:04;;;;;;;43.90;19.02;;;;;;;0.66;62.59;94494.66;5122781;27;20030;-75
2021/01/21 06:40:31;;;;;;;46.35;19.38;;;;;;;0.67;62.61;94503.31;5110563;28;20031;-74
2021/01/21 06:43:07;;;;;;;49.65;20.50;;;;;;;0.71;62.34;94504.44;5106725;27;20075;-74
2021/01/21 06:45:38;;;;;;;39.47;18.48;;;;;;;0.70;62.33;94489.72;5130728;27;20030;-75
2021/01/21 06:48:04;;;;;;;46.95;19.25;;;;;;;0.72;62.68;94496.34;5100553;28;20408;-74
2021/01/21 06:50:31;;;;;;;49.88;20.83;;;;;;;0.80;63.21;94497.78;5110246;28;20029;-75
2021/01/21 06:52:59;;;;;;;47.22;18.80;;;;;;;0.81;62.51;94488.88;5091534;28;20510;-74
2021/01/21 06:55:26;;;;;;;48.53;21.45;;;;;;;0.89;62.69;94492.94;5108918;28;20088;-74
2021/01/21 06:57:52;;;;;;;54.58;22.67;;;;;;;0.95;62.64;94478.88;5098026;28;20339;-74
2021/01/21 07:00:37;;;;;;;50.83;23.17;;;;;;;1.00;62.87;94473.72;5110465;28;20023;-74
2021/01/21 07:03:02;;;;;;;52.45;22.60;;;;;;;1.11;62.38;94479.91;5125865;27;20031;-74
2021/01/21 07:05:28;;;;;;;52.42;25.35;;;;;;;1.17;62.07;94486.84;5101281;27;20515;-74
2021/01/21 07:07:58;;;;;;;79.85;31.98;;;;;;;1.25;62.06;94496.94;5112011;27;20023;-74
2021/01/21 07:10:26;;;;;;;64.35;27.30;;;;;;;1.36;61.38;94487.38;5091786;28;20102;-73
2021/01/21 07:12:57;;;;;;;59.78;25.15;;;;;;;1.32;61.11;94494.97;5097361;27;20482;-74
2021/01/21 07:15:42;;;;;;;54.72;26.08;;;;;;;1.30;61.30;94486.50;5127887;27;20023;-74
2021/01/21 07:18:15;;;;;;;61.28;25.27;;;;;;;1.26;61.65;94490.66;5111854;27;20106;-74
2021/01/21 07:20:59;;;;;;;62.22;25.02;;;;;;;1.21;61.44;94498.47;5111915;27;20052;-74
2021/01/21 07:23:44;;;;;;;57.70;23.38;;;;;;;1.19;61.76;94497.91;5125078;27;20030;-74
2021/01/21 07:26:31;;;;;;;51.10;23.65;;;;;;;1.32;61.86;94507.28;5091341;28;20024;-74
2021/01/21 07:29:03;;;;;;;57.47;24.83;;;;;;;1.43;61.35;94510.88;5111448;27;20035;-74
2021/01/21 07:31:47;;;;;;;;;;;;;;;1.54;60.67;94513.41;5117627;27;20030;-74
2021/01/21 07:34:29;;;;;;;43.33;21.73;;;;;;;1.53;61.23;94511.03;5129916;27;19919;-75
2021/01/21 07:37:16;;;;;;;;;;;;;;;1.58;61.13;94525.03;5130773;27;20075;-75
2021/01/21 07:40:02;;;;;;;56.17;22.80;;;;;;;1.68;60.91;94515.72;5100977;28;20220;-75
2021/01/21 07:42:36;;;;;;;53.05;22.38;;;;;;;1.76;60.84;94502.94;5111017;28;20054;-75
2021/01/21 07:45:20;;;;;;;50.53;21.75;;;;;;;1.85;60.52;94505.94;5116061;28;20403;-74
2021/01/21 07:47:47;;;;;;;50.47;22.73;;;;;;;1.92;60.53;94506.59;5117244;27;20118;-73
2021/01/21 07:50:19;;;;;;;56.03;24.13;;;;;;;2.03;60.03;94496.19;5111728;27;20096;-75
2021/01/21 07:52:46;;;;;;;53.67;22.63;;;;;;;2.07;59.88;94502.56;5102986;27;20028;-65
2021/01/21 07:55:12;;;;;;;60.15;24.85;;;;;;;2.20;60.16;94508.25;5114818;27;20055;-75
2021/01/21 07:57:39;;;;;;;53.30;23.67;;;;;;;2.33;59.31;94503.69;5100234;27;20019;-73
2021/01/21 08:00:07;;;;;;;45.10;22.15;;;;;;;2.43;58.94;94495.91;5125729;27;20031;-73
2021/01/21 08:02:43;;;;;;;44.45;20.30;;;;;;;2.55;58.59;94504.44;5097025;27;20024;-72
2021/01/21 08:05:09;;;;;;;48.97;23.52;;;;;;;2.59;58.47;94502.91;5131229;27;20106;-72
2021/01/21 08:07:52;;;;;;;48.17;23.17;;;;;;;2.74;58.48;94499.66;5102238;28;20080;-71
2021/01/21 08:10:27;;;;;;;46.63;22.15;;;;;;;2.84;58.13;94496.31;5115627;27;20027;-71
2021/01/21 08:13:00;;;;;;;42.65;21.90;;;;;;;2.94;58.02;94499.06;5123626;27;20047;-71
2021/01/21 08:15:28;;;;;;;45.50;21.83;;;;;;;3.03;58.00;94493.34;5106837;27;20088;-72
2021/01/21 08:17:54;;;;;;;58.30;26.23;;;;;;;3.17;57.53;94490.03;5120655;27;20371;-72
2021/01/21 08:20:22;;;;;;;52.28;25.42;;;;;;;3.29;57.55;94489.88;5121764;27;20027;-73
2021/01/21 08:22:51;;;;;;;45.40;22.85;;;;;;;3.40;56.67;94488.91;5099822;28;20071;-73
2021/01/21 08:25:17;;;;;;;49.30;20.63;;;;;;;3.54;56.60;94499.00;5101834;27;20027;-74
2021/01/21 08:27:50;;;;;;;50.53;23.40;;;;;;;3.65;56.39;94495.41;5124789;27;20027;-73
2021/01/21 08:30:20;;;;;;;41.72;19.08;;;;;;;3.77;55.44;94498.66;5117799;27;20031;-76
2021/01/21 08:32:50;;;;;;;38.20;15.85;;;;;;;3.91;54.24;94491.09;5127894;27;20115;-80
2021/01/21 08:35:22;;;;;;;45.03;16.88;;;;;;;4.01;54.48;94500.91;5130767;27;20031;-77
2021/01/21 08:37:49;;;;;;;31.80;15.13;;;;;;;4.07;54.49;94502.53;5106579;28;20016;-77
2021/01/21 08:40:17;;;;;;;32.65;14.65;;;;;;;4.17;53.69;94502.56;5098321;27;20031;-77
2021/01/21 08:42:45;;;;;;;28.25;13.88;;;;;;;4.27;53.49;94501.00;5113278;27;20042;-78
2021/01/21 08:45:11;;;;;;;26.05;13.13;;;;;;;4.37;52.36;94501.06;5097513;27;20494;-74
2021/01/21 08:47:44;;;;;;;26.60;12.27;;;;;;;4.43;52.05;94506.09;5112901;28;20034;-79
2021/01/21 08:50:10;;;;;;;23.88;11.57;;;;;;;4.53;51.62;94502.69;5115303;27;20521;-79
2021/01/21 08:53:07;;;;;;;21.17;10.20;;;;;;;4.51;50.91;94502.16;5114684;27;20027;-80
2021/01/21 08:55:46;;;;;;;21.20;9.95;;;;;;;4.56;50.29;94509.31;5112571;27;20113;-79
2021/01/21 08:58:14;;;;;;;22.75;9.93;;;;;;;4.56;49.98;94494.28;5100614;27;20019;-81
2021/01/21 09:01:04;;;;;;;23.75;8.93;;;;;;;4.56;50.37;94498.75;5128456;27;20024;-79
2021/01/21 09:04:02;;;;;;;21.50;10.43;;;;;;;4.67;50.33;94495.09;5102396;28;20087;-82
2021/01/21 09:06:27;;;;;;;20.10;9.32;;;;;;;4.72;49.85;94502.22;5099034;27;20037;-79
2021/01/21 09:08:58;;;;;;;25.60;9.88;;;;;;;4.85;49.56;94499.09;5118389;27;20478;-79
2021/01/21 09:11:44;;;;;;;20.80;9.40;;;;;;;4.95;49.70;94501.75;5109825;28;20711;-78
2021/01/21 09:14:16;;;;;;;19.45;10.27;;;;;;;5.06;48.99;94509.72;5116078;27;20036;-79
2021/01/21 09:16:51;;;;;;;22.05;11.40;;;;;;;5.17;48.47;94487.50;5100030;27;20015;-79
2021/01/21 09:19:37;;;;;;;25.10;10.57;;;;;;;5.26;48.44;94506.31;5109720;27;20069;-79
2021/01/21 09:22:04;;;;;;;23.45;9.15;;;;;;;5.23;48.28;94497.03;5113900;27;20209;-78
2021/01/21 09:24:30;;;;;;;19.50;8.93;;;;;;;5.32;48.09;94484.09;5114340;27;20513;-78
2021/01/21 09:27:16;;;;;;;23.05;9.48;;;;;;;5.18;48.14;94489.91;5122263;27;20472;-78
2021/01/21 09:29:58;;;;;;;23.98;10.25;;;;;;;5.33;47.64;94481.19;5101847;27;20104;-79
2021/01/21 09:32:26;;;;;;;26.52;11.80;;;;;;;5.49;47.10;94483.81;5096498;28;20051;-78
2021/01/21 09:34:53;;;;;;;18.80;9.63;;;;;;;5.49;46.96;94465.31;5113950;27;20038;-79
2021/01/21 09:37:19;;;;;;;24.75;13.15;;;;;;;5.43;46.95;94483.84;5132069;27;20068;-77
2021/01/21 09:39:45;;;;;;;26.88;10.38;;;;;;;5.47;47.03;94470.06;5100092;28;20030;-78
2021/01/21 09:42:10;;;;;;;25.73;10.98;;;;;;;5.32;47.34;94476.16;5110378;27;20117;-79
2021/01/21 09:44:37;;;;;;;22.08;9.30;;;;;;;5.01;47.75;94466.38;5111446;27;20023;-77
2021/01/21 09:47:02;;;;;;;26.95;9.27;;;;;;;5.12;47.94;94459.25;5127368;27;20091;-79
2021/01/21 09:49:28;;;;;;;21.20;8.63;;;;;;;5.20;47.47;94465.84;5094494;28;20176;-77
2021/01/21 09:51:53;;;;;;;20.98;9.70;;;;;;;5.30;47.60;94465.84;5093304;28;20064;-80
2021/01/21 09:54:18;;;;;;;21.08;11.05;;;;;;;5.42;47.57;94461.09;5093444;28;20127;-81
2021/01/21 09:56:44;;;;;;;24.50;9.73;;;;;;;5.56;47.27;94455.28;5123869;27;20106;-78
2021/01/21 09:59:11;;;;;;;32.78;12.43;;;;;;;5.67;47.13;94454.19;5105469;27;20508;-79
2021/01/21 10:01:37;;;;;;;57.03;19.45;;;;;;;5.73;46.98;94442.53;5132469;27;20087;-77
2021/01/21 10:04:02;;;;;;;36.35;13.23;;;;;;;5.85;46.38;94450.19;5117465;27;20031;-82
2021/01/21 10:06:28;;;;;;;36.28;14.30;;;;;;;5.91;46.49;94435.09;5118095;27;20028;-76
2021/01/21 10:08:53;;;;;;;26.13;11.77;;;;;;;5.96;46.42;94440.38;5121744;27;20034;-79
2021/01/21 10:11:18;;;;;;;31.20;12.07;;;;;;;6.05;46.49;94436.13;5093983;28;20256;-78
2021/01/21 10:13:44;;;;;;;28.73;14.00;;;;;;;6.18;46.36;94432.91;5104994;27;20389;-78
2021/01/21 10:16:09;;;;;;;24.67;11.27;;;;;;;6.25;46.25;94432.63;5108676;27;20063;-78
2021/01/21 10:18:35;;;;;;;23.75;11.57;;;;;;;6.30;45.98;94437.09;5111372;27;20513;-78
2021/01/21 10:21:00;;;;;;;20.30;10.90;;;;;;;6.39;45.54;94443.41;5131421;27;20035;-78
2021/01/21 10:23:25;;;;;;;31.65;13.15;;;;;;;6.45;46.10;94431.72;5095198;28;20555;-78
2021/01/21 10:25:51;;;;;;;29.38;13.50;;;;;;;6.43;46.46;94423.25;5108939;27;20375;-78
2021/01/21 10:28:16;;;;;;;26.13;13.23;;;;;;;6.46;46.02;94422.72;5128029;27;20498;-78
2021/01/21 10:30:42;;;;;;;28.98;13.75;;;;;;;6.51;46.09;94430.63;5108658;27;20023;-80
2021/01/21 10:33:07;;;;;;;27.33;11.50;;;;;;;6.54;45.51;94416.84;5112563;27;20477;-84
2021/01/21 10:35:32;;;;;;;22.52;9.80;;;;;;;6.53;44.92;94415.25;5125299;27;20023;-75
2021/01/21 10:38:03;;;;;;;27.05;9.98;;;;;;;6.50;45.30;94412.38;5113355;27;20031;-77
2021/01/21 10:40:29;;;;;;;25.98;10.52;;;;;;;6.49;45.36;94406.28;5092139;28;20394;-76
2021/01/21 10:42:54;;;;;;;19.65;10.32;;;;;;;6.58;45.27;94425.06;5096332;28;20023;-77
2021/01/21 10:45:20;;;;;;;33.03;9.73;;;;;;;6.68;44.85;94389.78;5108940;27;20042;-76
2021/01/21 10:47:45;;;;;;;26.83;11.82;;;;;;;6.72;44.48;94410.13;5091961;28;20028;-76
2021/01/21 10:50:11;;;;;;;29.67;12.23;;;;;;;6.75;44.51;94393.66;5091895;28;20368;-76
2021/01/21 10:52:37;;;;;;;31.08;12.02;;;;;;;6.77;44.67;94386.25;5118514;27;20430;-76
2021/01/21 10:55:02;;;;;;;30.10;13.30;;;;;;;6.81;44.26;94389.91;5093241;28;20032;-77
2021/01/21 10:57:28;;;;;;;24.05;11.57;;;;;;;6.86;44.47;94390.94;5109801;27;20141;-79
2021/01/21 10:59:54;;;;;;;21.05;10.82;;;;;;;6.91;43.78;94381.09;5104582;27;20027;-77
2021/01/21 11:02:19;;;;;;;26.80;12.68;;;;;;;6.95;43.67;94378.72;5100331;28;20467;-78
2021/01/21 11:04:45;;;;;;;21.83;11.80;;;;;;;7.01;43.86;94373.06;5116080;27;20056;-78
2021/01/21 11:07:10;;;;;;;29.42;11.82;;;;;;;7.09;43.72;94381.53;5129054;27;20098;-77
2021/01/21 11:09:35;;;;;;;26.83;11.82;;;;;;;7.17;43.42;94367.66;5112284;27;20382;-81
2021/01/21 11:12:03;;;;;;;23.15;11.48;;;;;;;7.17;43.60;94371.09;5126522;27;20047;-80
2021/01/21 11:14:28;;;;;;;27.30;10.15;;;;;;;7.17;43.47;94362.34;5113179;27;20379;-78
2021/01/21 11:16:53;;;;;;;24.38;11.18;;;;;;;7.19;43.53;94365.53;5091658;28;20083;-79
2021/01/21 11:19:19;;;;;;;23.35;8.95;;;;;;;7.24;43.51;94370.75;5091963;28;20030;-78
2021/01/21 11:21:44;;;;;;;22.02;10.90;;;;;;;7.32;43.51;94345.50;5113619;27;20098;-76
2021/01/21 11:24:10;;;;;;;35.63;11.52;;;;;;;7.35;42.89;94353.69;5100308;27;20039;-77
2021/01/21 11:26:35;;;;;;;19.13;9.38;;;;;;;7.34;43.04;94352.09;5094859;28;20090;-80
2021/01/21 11:29:00;;;;;;;28.38;11.45;;;;;;;7.34;42.88;94340.72;5122495;27;20420;-82
2021/01/21 11:31:26;;;;;;;38.47;14.90;;;;;;;7.31;43.07;94352.69;5112290;27;20027;-77
2021/01/21 11:33:51;;;;;;;34.78;13.23;;;;;;;7.34;43.07;94343.38;5121291;27;20039;-78